createdAt,value
2018-01-25T00:01:29.809Z,2.57
2018-01-25T00:03:55.740Z,1.60
2018-01-25T00:06:25.030Z,2.30
2018-01-25T00:08:50.982Z,3.42
2018-01-25T00:11:20.153Z,2.63
2018-01-25T00:13:46.117Z,2.58
2018-01-25T00:16:13.643Z,3.03
2018-01-25T00:18:39.596Z,1.92
2018-01-25T00:21:05.590Z,2.23
2018-01-25T00:23:31.577Z,2.28
2018-01-25T00:25:57.557Z,1.75
2018-01-25T00:28:25.024Z,1.60
2018-01-25T00:30:51.003Z,1.75
2018-01-25T00:33:20.175Z,1.85
2018-01-25T00:35:46.127Z,1.60
2018-01-25T00:38:14.987Z,1.90
2018-01-25T00:40:40.896Z,1.50
2018-01-25T00:43:10.665Z,1.30
2018-01-25T00:45:36.635Z,1.60
2018-01-25T00:48:03.814Z,2.13
2018-01-25T00:50:29.741Z,1.65
2018-01-25T00:52:58.944Z,1.30
2018-01-25T00:55:24.890Z,1.60
2018-01-25T00:57:50.828Z,1.50
2018-01-25T01:00:16.770Z,1.30
2018-01-25T01:02:42.697Z,1.33
2018-01-25T01:05:11.805Z,2.10
2018-01-25T01:07:37.759Z,1.85
2018-01-25T01:10:05.270Z,1.80
2018-01-25T01:12:31.221Z,1.42
2018-01-25T01:15:01.089Z,1.47
2018-01-25T01:17:27.033Z,1.45
2018-01-25T01:19:56.049Z,1.67
2018-01-25T01:22:22.000Z,2.00
2018-01-25T01:24:49.040Z,1.70
2018-01-25T01:27:15.019Z,1.62
2018-01-25T01:29:44.008Z,1.30
2018-01-25T01:32:10.017Z,1.45
2018-01-25T01:34:35.944Z,1.92
2018-01-25T01:37:01.939Z,1.30
2018-01-25T01:39:27.898Z,1.50
2018-01-25T01:41:55.274Z,0.93
2018-01-25T01:44:21.268Z,1.52
2018-01-25T01:46:50.574Z,1.27
2018-01-25T01:49:16.537Z,1.55
2018-01-25T01:51:44.793Z,1.20
2018-01-25T01:54:10.807Z,1.50
2018-01-25T01:56:40.088Z,1.33
2018-01-25T01:59:06.044Z,1.50
2018-01-25T02:01:34.263Z,1.20
2018-01-25T02:04:00.232Z,1.85
2018-01-25T02:06:29.441Z,1.10
2018-01-25T02:08:55.429Z,1.12
2018-01-25T02:11:21.394Z,1.40
2018-01-25T02:13:47.340Z,1.90
2018-01-25T02:16:13.302Z,1.83
2018-01-25T02:18:40.961Z,1.60
2018-01-25T02:21:06.925Z,1.70
2018-01-25T02:23:36.157Z,1.30
2018-01-25T02:26:02.177Z,1.85
2018-01-25T02:28:30.235Z,1.48
2018-01-25T02:30:56.219Z,1.35
2018-01-25T02:33:25.517Z,1.60
2018-01-25T02:35:51.465Z,1.40
2018-01-25T02:38:19.966Z,1.47
2018-01-25T02:40:45.905Z,1.50
2018-01-25T02:43:15.233Z,1.73
2018-01-25T02:45:41.220Z,1.90
2018-01-25T02:48:07.183Z,1.90
2018-01-25T02:50:33.134Z,1.50
2018-01-25T02:52:59.095Z,2.23
2018-01-25T02:55:26.450Z,1.80
2018-01-25T02:57:52.523Z,2.35
2018-01-25T03:00:20.681Z,1.80
2018-01-25T03:02:46.617Z,2.00
2018-01-25T03:05:16.303Z,2.10
2018-01-25T03:07:42.225Z,1.90
2018-01-25T03:10:10.088Z,1.60
2018-01-25T03:12:36.017Z,2.20
2018-01-25T03:15:05.044Z,1.70
2018-01-25T03:17:31.053Z,1.62
2018-01-25T03:20:00.481Z,1.92
2018-01-25T03:22:26.408Z,1.75
2018-01-25T03:24:52.413Z,2.30
2018-01-25T03:27:18.340Z,1.90
2018-01-25T03:29:44.281Z,1.80
2018-01-25T03:32:11.626Z,2.10
2018-01-25T03:34:37.570Z,2.00
2018-01-25T03:37:06.815Z,1.90
2018-01-25T03:39:32.792Z,2.15
2018-01-25T03:42:00.579Z,1.60
2018-01-25T03:44:26.736Z,1.50
2018-01-25T03:46:55.774Z,2.00
2018-01-25T03:49:21.732Z,1.73
2018-01-25T03:51:51.308Z,1.73
2018-01-25T03:54:17.242Z,1.70
2018-01-25T03:56:44.784Z,1.47
2018-01-25T03:59:10.717Z,1.90
2018-01-25T04:01:36.646Z,2.40
2018-01-25T04:04:02.656Z,1.50
2018-01-25T04:06:28.584Z,2.10
2018-01-25T04:08:56.724Z,2.60
2018-01-25T04:11:22.643Z,1.90
2018-01-25T04:13:52.020Z,2.23
2018-01-25T04:16:17.941Z,1.80
2018-01-25T04:18:47.620Z,2.07
2018-01-25T04:21:13.539Z,2.12
2018-01-25T04:23:40.820Z,3.07
2018-01-25T04:26:06.772Z,2.78
2018-01-25T04:28:35.856Z,2.10
2018-01-25T04:31:01.777Z,1.83
2018-01-25T04:33:30.971Z,2.03
2018-01-25T04:35:56.935Z,1.77
2018-01-25T04:38:22.854Z,2.30
2018-01-25T04:40:48.779Z,2.10
2018-01-25T04:43:14.773Z,2.20
2018-01-25T04:45:42.324Z,1.75
2018-01-25T04:48:08.235Z,2.00
2018-01-25T04:50:37.300Z,1.83
2018-01-25T04:53:03.288Z,2.03
2018-01-25T04:55:31.160Z,1.80
2018-01-25T04:57:57.418Z,1.73
2018-01-25T05:00:27.285Z,1.90
2018-01-25T05:02:53.265Z,1.90
2018-01-25T05:05:22.385Z,1.97
2018-01-25T05:07:48.344Z,2.00
2018-01-25T05:10:15.425Z,2.00
2018-01-25T05:12:41.400Z,1.98
2018-01-25T05:15:07.378Z,2.70
2018-01-25T05:17:33.341Z,1.97
2018-01-25T05:19:59.285Z,2.10
2018-01-25T05:22:27.010Z,1.33
2018-01-25T05:24:52.985Z,1.87
2018-01-25T05:27:21.729Z,2.33
2018-01-25T05:29:47.720Z,1.40
2018-01-25T05:32:16.837Z,1.40
2018-01-25T05:34:42.754Z,1.98
2018-01-25T05:37:12.325Z,2.00
2018-01-25T05:39:38.313Z,1.75
2018-01-25T05:42:06.248Z,2.00
2018-01-25T05:44:32.251Z,2.10
2018-01-25T05:47:01.218Z,1.80
2018-01-25T05:49:27.137Z,2.62
2018-01-25T05:51:53.097Z,2.00
2018-01-25T05:54:19.088Z,2.50
2018-01-25T05:56:45.037Z,2.22
2018-01-25T05:59:12.812Z,2.10
2018-01-25T06:01:38.783Z,1.75
2018-01-25T06:04:07.848Z,2.63
2018-01-25T06:06:33.828Z,1.80
2018-01-25T06:09:03.848Z,1.90
2018-01-25T06:11:29.806Z,1.80
2018-01-25T06:13:57.105Z,1.67
2018-01-25T06:16:23.081Z,1.83
2018-01-25T06:18:51.340Z,2.00
2018-01-25T06:21:17.313Z,1.85
2018-01-25T06:23:46.280Z,2.10
2018-01-25T06:26:12.225Z,1.77
2018-01-25T06:28:38.129Z,2.20
2018-01-25T06:31:04.093Z,6.33
2018-01-25T06:33:30.089Z,2.13
2018-01-25T06:35:57.731Z,2.17
2018-01-25T06:38:23.666Z,2.22
2018-01-25T06:40:52.462Z,2.37
2018-01-25T06:43:18.437Z,1.85
2018-01-25T06:45:47.088Z,2.40
2018-01-25T06:48:13.049Z,2.40
2018-01-25T06:50:42.504Z,2.20
2018-01-25T06:53:08.454Z,2.03
2018-01-25T06:55:37.531Z,2.47
2018-01-25T06:58:03.448Z,2.20
2018-01-25T07:00:31.159Z,2.53
2018-01-25T07:02:57.072Z,2.37
2018-01-25T07:05:23.030Z,2.50
2018-01-25T07:07:48.956Z,2.70
2018-01-25T07:10:14.937Z,2.47
2018-01-25T07:12:44.128Z,2.17
2018-01-25T07:15:10.103Z,2.47
2018-01-25T07:17:38.261Z,2.40
2018-01-25T07:20:04.281Z,1.90
2018-01-25T07:22:33.504Z,1.85
2018-01-25T07:24:59.443Z,2.15
2018-01-25T07:27:27.325Z,3.17
2018-01-25T07:29:53.313Z,2.35
2018-01-25T07:32:22.320Z,2.65
2018-01-25T07:34:48.280Z,2.03
2018-01-25T07:37:17.540Z,3.23
2018-01-25T07:39:43.520Z,2.70
2018-01-25T07:42:09.492Z,3.30
2018-01-25T07:44:35.449Z,2.13
2018-01-25T07:47:01.415Z,2.37
2018-01-25T07:49:28.573Z,2.43
2018-01-25T07:51:54.526Z,2.45
2018-01-25T07:54:23.812Z,2.73
2018-01-25T07:56:49.781Z,3.10
2018-01-25T07:59:18.943Z,3.90
2018-01-25T08:01:44.880Z,3.30
2018-01-25T08:04:12.753Z,2.90
2018-01-25T08:06:38.656Z,2.40
2018-01-25T08:09:08.207Z,2.30
2018-01-25T08:11:34.166Z,1.70
2018-01-25T08:14:03.033Z,2.80
2018-01-25T08:16:35.161Z,1.80
2018-01-25T08:19:01.069Z,2.00
2018-01-25T08:21:27.016Z,2.30
2018-01-25T08:23:52.931Z,2.13
2018-01-25T08:26:18.919Z,12.50
2018-01-25T08:28:44.882Z,2.95
2018-01-25T08:31:10.797Z,2.10
2018-01-25T08:33:36.752Z,2.20
2018-01-25T08:36:03.230Z,2.30
2018-01-25T08:38:29.189Z,2.67
2018-01-25T08:40:58.453Z,1.93
2018-01-25T08:43:24.406Z,2.20
2018-01-25T08:45:52.738Z,2.13
2018-01-25T08:48:18.668Z,1.85
2018-01-25T08:50:47.867Z,1.70
2018-01-25T08:53:13.870Z,2.17
2018-01-25T08:55:39.873Z,2.40
2018-01-25T08:58:05.791Z,2.00
2018-01-25T09:00:31.753Z,1.80
2018-01-25T09:02:59.364Z,2.77
2018-01-25T09:05:25.354Z,3.20
2018-01-25T09:07:54.570Z,2.50
2018-01-25T09:10:20.534Z,2.35
2018-01-25T09:12:49.616Z,2.70
2018-01-25T09:15:15.583Z,2.53
2018-01-25T09:17:44.713Z,2.70
2018-01-25T09:20:10.661Z,2.53
2018-01-25T09:22:39.653Z,2.40
2018-01-25T09:25:05.645Z,3.00
2018-01-25T09:27:32.710Z,2.50
2018-01-25T09:29:58.662Z,7.05
2018-01-25T09:32:24.670Z,3.30
2018-01-25T09:34:50.661Z,3.35
2018-01-25T09:37:16.600Z,2.43
2018-01-25T09:39:45.338Z,2.70
2018-01-25T09:42:11.289Z,4.18
2018-01-25T09:44:38.973Z,2.30
2018-01-25T09:47:04.940Z,2.87
2018-01-25T09:49:34.473Z,3.67
2018-01-25T09:52:00.417Z,2.47
2018-01-25T09:54:29.847Z,3.00
2018-01-25T09:56:55.768Z,2.22
2018-01-25T09:59:25.104Z,2.50
2018-01-25T10:01:51.076Z,2.55
2018-01-25T10:04:18.350Z,2.80
2018-01-25T10:06:44.305Z,2.17
2018-01-25T10:09:10.270Z,2.17
2018-01-25T10:11:36.241Z,2.30
2018-01-25T10:14:02.230Z,2.40
2018-01-25T10:16:31.231Z,2.70
2018-01-25T10:18:57.188Z,2.50
2018-01-25T10:21:26.356Z,2.93
2018-01-25T10:23:52.333Z,3.05
2018-01-25T10:26:19.601Z,2.60
2018-01-25T10:28:45.578Z,3.20
2018-01-25T10:31:14.805Z,2.73
2018-01-25T10:33:40.783Z,2.50
2018-01-25T10:36:09.564Z,2.10
2018-01-25T10:38:35.544Z,2.60
2018-01-25T10:41:03.326Z,2.33
2018-01-25T10:43:29.389Z,2.20
2018-01-25T10:45:55.362Z,2.00
2018-01-25T10:48:21.317Z,2.60
2018-01-25T10:50:47.245Z,2.87
2018-01-25T10:53:16.039Z,2.20
2018-01-25T10:55:41.986Z,2.28
2018-01-25T10:58:09.882Z,3.50
2018-01-25T11:00:41.933Z,2.97
2018-01-25T11:03:07.893Z,3.37
2018-01-25T11:05:33.862Z,2.40
2018-01-25T11:07:59.824Z,2.80
2018-01-25T11:10:25.790Z,1.83
2018-01-25T11:12:54.853Z,2.70
2018-01-25T11:15:20.846Z,2.10
2018-01-25T11:17:48.694Z,2.60
2018-01-25T11:20:14.708Z,2.35
2018-01-25T11:22:40.693Z,1.75
2018-01-25T11:25:06.605Z,2.50
2018-01-25T11:27:32.577Z,2.30
2018-01-25T11:30:01.665Z,3.70
2018-01-25T11:32:27.666Z,2.28
2018-01-25T11:34:56.742Z,2.03
2018-01-25T11:37:22.709Z,2.15
2018-01-25T11:39:49.860Z,2.43
2018-01-25T11:42:15.841Z,2.50
2018-01-25T11:44:44.923Z,2.70
2018-01-25T11:47:10.941Z,2.72
2018-01-25T11:49:40.011Z,2.20
2018-01-25T11:52:05.954Z,2.20
2018-01-25T11:54:35.014Z,2.47
2018-01-25T11:57:00.945Z,2.17
2018-01-25T11:59:26.936Z,2.40
2018-01-25T12:01:52.886Z,2.53
2018-01-25T12:04:18.820Z,2.77
2018-01-25T12:06:45.973Z,2.30
2018-01-25T12:09:11.993Z,2.67
2018-01-25T12:11:41.088Z,2.40
2018-01-25T12:14:07.106Z,2.22
2018-01-25T12:16:36.059Z,2.30
2018-01-25T12:19:02.046Z,3.10
2018-01-25T12:21:31.284Z,2.27
2018-01-25T12:23:57.269Z,2.30
2018-01-25T12:26:25.185Z,2.03
2018-01-25T12:28:51.169Z,2.40
2018-01-25T12:31:19.302Z,2.07
2018-01-25T12:33:45.249Z,2.62
2018-01-25T12:36:11.211Z,2.33
2018-01-25T12:38:37.142Z,1.90
2018-01-25T12:41:03.124Z,2.93
2018-01-25T12:43:31.850Z,1.73
2018-01-25T12:45:57.848Z,2.20
2018-01-25T12:48:26.705Z,3.50
2018-01-25T12:50:52.689Z,2.30
2018-01-25T12:53:21.882Z,2.20
2018-01-25T12:55:47.872Z,2.22
2018-01-25T12:58:15.222Z,2.43
2018-01-25T13:00:41.210Z,1.75
2018-01-25T13:03:10.495Z,2.20
2018-01-25T13:05:36.434Z,3.60
2018-01-25T13:08:04.508Z,2.87
2018-01-25T13:10:30.483Z,2.55
2018-01-25T13:12:56.464Z,2.00
2018-01-25T13:15:22.394Z,2.60
2018-01-25T13:17:48.314Z,2.50
2018-01-25T13:20:16.504Z,2.63
2018-01-25T13:22:42.446Z,2.10
2018-01-25T13:25:10.954Z,2.53
2018-01-25T13:27:36.917Z,2.53
2018-01-25T13:30:06.357Z,2.13
2018-01-25T13:32:32.293Z,2.55
2018-01-25T13:35:02.042Z,2.27
2018-01-25T13:37:28.026Z,2.40
2018-01-25T13:39:55.123Z,3.10
2018-01-25T13:42:21.063Z,2.60
2018-01-25T13:44:50.634Z,2.47
2018-01-25T13:47:16.609Z,2.30
2018-01-25T13:49:42.568Z,5.60
2018-01-25T13:52:08.559Z,11.93
2018-01-25T13:54:34.521Z,2.80
2018-01-25T13:57:01.534Z,2.70
2018-01-25T13:59:27.509Z,2.75
2018-01-25T14:01:56.509Z,2.50
2018-01-25T14:04:22.450Z,2.80
2018-01-25T14:06:51.472Z,2.00
2018-01-25T14:09:17.427Z,2.17
2018-01-25T14:11:46.554Z,2.40
2018-01-25T14:14:12.508Z,2.37
2018-01-25T14:16:40.428Z,2.10
2018-01-25T14:19:06.405Z,2.62
2018-01-25T14:21:35.483Z,2.27
2018-01-25T14:24:01.450Z,2.33
2018-01-25T14:26:27.397Z,2.47
2018-01-25T14:28:53.370Z,2.40
2018-01-25T14:31:19.320Z,2.33
2018-01-25T14:33:48.441Z,2.20
2018-01-25T14:36:14.445Z,2.28
2018-01-25T14:38:41.830Z,2.37
2018-01-25T14:41:07.749Z,2.17
2018-01-25T14:43:36.861Z,2.20
2018-01-25T14:46:02.857Z,2.60
2018-01-25T14:48:32.125Z,2.03
2018-01-25T14:50:58.102Z,2.50
2018-01-25T14:53:27.096Z,2.20
2018-01-25T14:55:53.069Z,2.70
2018-01-25T14:58:20.550Z,2.60
2018-01-25T15:00:46.518Z,2.35
2018-01-25T15:03:12.505Z,2.70
2018-01-25T15:05:38.480Z,3.50
2018-01-25T15:08:04.494Z,2.70
2018-01-25T15:10:32.355Z,2.30
2018-01-25T15:12:58.331Z,2.28
2018-01-25T15:15:26.970Z,2.97
2018-01-25T15:17:52.961Z,2.72
2018-01-25T15:20:21.536Z,2.27
2018-01-25T15:22:47.470Z,2.70
2018-01-25T15:25:23.447Z,2.93
2018-01-25T15:27:49.361Z,2.62
2018-01-25T15:30:15.338Z,2.97
2018-01-25T15:32:41.324Z,3.30
2018-01-25T15:35:07.277Z,2.37
2018-01-25T15:37:33.278Z,2.33
2018-01-25T15:39:59.184Z,2.47
2018-01-25T15:42:25.129Z,2.00
2018-01-25T15:44:51.103Z,2.40
2018-01-25T15:47:17.951Z,2.80
2018-01-25T15:49:43.881Z,2.28
2018-01-25T15:52:13.042Z,2.93
2018-01-25T15:54:39.001Z,2.67
2018-01-25T15:57:06.952Z,3.07
2018-01-25T15:59:32.875Z,3.00
2018-01-25T16:02:02.490Z,3.80
2018-01-25T16:04:28.419Z,8.35
2018-01-25T16:06:56.378Z,6.50
2018-01-25T16:09:22.348Z,4.32
2018-01-25T16:11:51.713Z,3.00
2018-01-25T16:14:17.707Z,3.03
2018-01-25T16:16:43.680Z,2.90
2018-01-25T16:19:09.643Z,2.80
2018-01-25T16:21:35.624Z,2.37
2018-01-25T16:24:03.525Z,2.43
2018-01-25T16:26:29.498Z,2.40
2018-01-25T16:28:57.276Z,2.13
2018-01-25T16:31:23.226Z,2.30
2018-01-25T16:33:52.934Z,3.07
2018-01-25T16:36:18.962Z,2.67
2018-01-25T16:38:46.622Z,3.10
2018-01-25T16:41:12.640Z,2.78
2018-01-25T16:43:41.449Z,3.53
2018-01-25T16:46:07.378Z,2.80
2018-01-25T16:48:35.986Z,5.87
2018-01-25T16:51:01.941Z,3.08
2018-01-25T16:53:27.971Z,2.80
2018-01-25T16:55:53.932Z,3.45
2018-01-25T16:58:19.886Z,4.77
2018-01-25T17:00:49.890Z,3.27
2018-01-25T17:03:15.838Z,3.35
2018-01-25T17:05:43.132Z,3.30
2018-01-25T17:08:09.118Z,2.50
2018-01-25T17:10:39.002Z,3.20
2018-01-25T17:13:04.981Z,2.55
2018-01-25T17:15:32.829Z,2.67
2018-01-25T17:17:58.793Z,3.33
2018-01-25T17:20:27.833Z,2.80
2018-01-25T17:22:53.828Z,2.72
2018-01-25T17:25:22.618Z,3.50
2018-01-25T17:27:48.541Z,3.22
2018-01-25T17:30:14.474Z,4.77
2018-01-25T17:32:40.451Z,5.43
2018-01-25T17:35:06.408Z,3.70
2018-01-25T17:37:33.640Z,6.80
2018-01-25T17:39:59.603Z,13.52
2018-01-25T17:42:28.759Z,19.27
2018-01-25T17:44:54.750Z,5.55
2018-01-25T17:47:24.458Z,3.53
2018-01-25T17:49:50.610Z,3.72
2018-01-25T17:52:18.374Z,3.47
2018-01-25T17:54:44.326Z,3.45
2018-01-25T17:57:13.262Z,3.27
2018-01-25T17:59:39.176Z,3.37
2018-01-25T18:02:07.064Z,3.50
2018-01-25T18:04:33.024Z,3.45
2018-01-25T18:06:58.989Z,4.30
2018-01-25T18:09:24.933Z,5.60
2018-01-25T18:11:50.943Z,5.20
2018-01-25T18:14:18.861Z,5.18
2018-01-25T18:16:44.817Z,3.87
2018-01-25T18:19:13.852Z,4.13
2018-01-25T18:21:39.833Z,3.15
2018-01-25T18:24:08.874Z,3.47
2018-01-25T18:26:34.825Z,3.85
2018-01-25T18:29:02.504Z,3.90
2018-01-25T18:31:28.472Z,4.55
2018-01-25T18:33:57.296Z,3.97
2018-01-25T18:36:23.277Z,4.85
2018-01-25T18:38:53.075Z,3.90
2018-01-25T18:41:19.100Z,3.80
2018-01-25T18:43:45.096Z,3.87
2018-01-25T18:46:11.067Z,4.45
2018-01-25T18:48:37.064Z,4.43
2018-01-25T18:51:04.074Z,4.37
2018-01-25T18:53:30.033Z,7.20
2018-01-25T18:55:59.284Z,6.53
2018-01-25T18:58:25.261Z,4.43
2018-01-25T19:00:54.505Z,4.70
2018-01-25T19:03:20.445Z,3.80
2018-01-25T19:05:49.579Z,4.70
2018-01-25T19:08:15.566Z,5.12
2018-01-25T19:10:44.609Z,4.57
2018-01-25T19:13:10.588Z,5.10
2018-01-25T19:15:38.389Z,5.30
2018-01-25T19:18:04.396Z,5.18
2018-01-25T19:20:30.363Z,4.68
2018-01-25T19:22:56.345Z,5.60
2018-01-25T19:25:22.322Z,5.07
2018-01-25T19:27:50.010Z,6.20
2018-01-25T19:30:16.019Z,6.10
2018-01-25T19:32:43.777Z,5.20
2018-01-25T19:35:09.752Z,5.28
2018-01-25T19:37:39.206Z,5.30
2018-01-25T19:40:05.151Z,5.03
2018-01-25T19:42:35.050Z,5.20
2018-01-25T19:45:01.056Z,5.07
2018-01-25T19:47:29.642Z,5.57
2018-01-25T19:49:55.621Z,5.93
2018-01-25T19:52:24.745Z,6.80
2018-01-25T19:54:50.733Z,5.72
2018-01-25T19:57:16.685Z,5.40
2018-01-25T19:59:42.659Z,5.07
2018-01-25T20:02:08.666Z,6.00
2018-01-25T20:04:34.652Z,5.50
2018-01-25T20:07:00.570Z,5.30
2018-01-25T20:09:30.230Z,5.83
2018-01-25T20:11:56.166Z,5.95
2018-01-25T20:14:25.561Z,5.70
2018-01-25T20:16:51.547Z,5.30
2018-01-25T20:19:18.860Z,5.68
2018-01-25T20:21:44.816Z,8.13
2018-01-25T20:24:14.070Z,4.80
2018-01-25T20:26:40.012Z,12.50
2018-01-25T20:29:08.949Z,4.90
2018-01-25T20:31:34.913Z,6.20
2018-01-25T20:34:00.885Z,5.70
2018-01-25T20:36:26.881Z,6.13
2018-01-25T20:38:53.126Z,6.37
2018-01-25T20:41:20.113Z,5.40
2018-01-25T20:43:46.062Z,5.90
2018-01-25T20:46:15.327Z,5.47
2018-01-25T20:48:41.249Z,5.60
2018-01-25T20:51:10.933Z,5.50
2018-01-25T20:53:36.918Z,6.12
2018-01-25T20:56:04.239Z,6.03
2018-01-25T20:58:31.116Z,6.32
2018-01-25T21:00:58.923Z,6.20
2018-01-25T21:03:24.893Z,5.72
2018-01-25T21:05:53.506Z,6.03
2018-01-25T21:08:19.533Z,5.80
2018-01-25T21:10:45.493Z,5.50
2018-01-25T21:13:11.449Z,4.83
2018-01-25T21:15:37.449Z,5.43
2018-01-25T21:18:05.333Z,5.90
2018-01-25T21:20:31.315Z,6.40
2018-01-25T21:23:01.177Z,6.20
2018-01-25T21:25:27.577Z,6.22
2018-01-25T21:27:54.818Z,5.80
2018-01-25T21:30:20.782Z,5.93
2018-01-25T21:32:49.958Z,5.77
2018-01-25T21:35:15.985Z,7.62
2018-01-25T21:37:43.939Z,5.93
2018-01-25T21:40:09.968Z,6.95
2018-01-25T21:42:39.137Z,6.30
2018-01-25T21:45:05.077Z,5.18
2018-01-25T21:47:31.106Z,6.20
2018-01-25T21:49:57.076Z,6.53
2018-01-25T21:52:23.053Z,4.57
2018-01-25T21:54:51.058Z,5.00
2018-01-25T21:57:16.960Z,6.25
2018-01-25T21:59:46.206Z,4.40
2018-01-25T22:02:12.200Z,5.12
2018-01-25T22:04:40.016Z,4.43
2018-01-25T22:07:05.961Z,5.55
2018-01-25T22:09:34.973Z,4.43
2018-01-25T22:12:00.967Z,5.22
2018-01-25T22:14:30.252Z,3.85
2018-01-25T22:16:56.273Z,5.12
2018-01-25T22:19:23.945Z,5.25
2018-01-25T22:21:49.885Z,4.55
2018-01-25T22:24:15.817Z,5.30
2018-01-25T22:26:41.783Z,5.07
2018-01-25T22:29:07.760Z,5.43
2018-01-25T22:31:37.125Z,4.50
2018-01-25T22:34:03.094Z,4.65
2018-01-25T22:36:32.437Z,4.70
2018-01-25T22:38:58.428Z,5.43
2018-01-25T22:41:25.887Z,4.40
2018-01-25T22:43:51.857Z,4.70
2018-01-25T22:46:20.888Z,4.80
2018-01-25T22:48:46.881Z,6.05
2018-01-25T22:51:15.653Z,4.90
2018-01-25T22:53:41.607Z,4.55
2018-01-25T22:56:10.385Z,5.07
2018-01-25T22:58:36.336Z,4.22
2018-01-25T23:01:02.253Z,4.17
2018-01-25T23:03:28.212Z,4.70
2018-01-25T23:05:54.189Z,4.03
2018-01-25T23:08:21.688Z,4.60
2018-01-25T23:10:47.587Z,6.00
2018-01-25T23:13:17.042Z,5.07
2018-01-25T23:15:43.006Z,5.03
2018-01-25T23:18:12.162Z,4.70
2018-01-25T23:20:38.136Z,4.85
2018-01-25T23:23:05.199Z,4.67
2018-01-25T23:25:31.154Z,4.37
2018-01-25T23:28:00.357Z,4.27
2018-01-25T23:30:26.373Z,4.35
2018-01-25T23:32:56.214Z,4.60
2018-01-25T23:35:22.149Z,4.25
2018-01-25T23:37:48.094Z,4.37
2018-01-25T23:40:14.051Z,4.20
2018-01-25T23:42:40.050Z,5.00
2018-01-25T23:45:07.009Z,5.45
2018-01-25T23:47:33.178Z,4.37
2018-01-25T23:50:01.018Z,5.28
2018-01-25T23:52:26.978Z,4.87
2018-01-25T23:54:55.716Z,3.90
2018-01-25T23:57:21.748Z,5.15
2018-01-25T23:59:51.468Z,5.50
